Time;durP1;ratioP1;P1;durP2;ratioP2;P2;SDS_P1;SDS_P2;PMS_P1;PMS_P2;Temp;Humidity;BMP_temperature;BMP_pressure;BME280_temperature;BME280_humidity;BME280_pressure;Samples;Min_cycle;Max_cycle;Signal;HPM_P1;HPM_P2
2022/12/25 00:00:55;;;;;;;68.70;41.30;;;;;;;2.63;100.00;99400.68;106483;1306;138693;-62
2022/12/25 00:03:22;;;;;;;;;;;;;;;2.61;100.00;99402.22;106698;1305;22380;-62
2022/12/25 00:05:49;;;;;;;58.30;34.70;;;;;;;2.60;100.00;99407.70;106584;1296;124825;-61
2022/12/25 00:08:16;;;;;;;57.30;37.20;;;;;;;2.59;100.00;99409.06;106669;1306;22120;-62
2022/12/25 00:10:43;;;;;;;63.20;38.10;;;;;;;2.57;100.00;99410.81;106550;1298;22312;-62
2022/12/25 00:13:11;;;;;;;63.70;39.70;;;;;;;2.58;100.00;99414.87;106577;1296;138983;-61
2022/12/25 00:15:38;;;;;;;;;;;;;;;2.57;100.00;99415.48;106539;1304;22354;-62
2022/12/25 00:18:05;;;;;;;57.80;35.60;;;;;;;2.57;100.00;99415.90;106513;1294;124583;-62
2022/12/25 00:20:32;;;;;;;54.80;35.30;;;;;;;2.56;100.00;99416.56;106582;1298;22176;-61
2022/12/25 00:22:59;;;;;;;57.20;34.40;;;;;;;2.54;100.00;99419.28;106535;1305;139688;-61
2022/12/25 00:25:25;;;;;;;54.00;36.00;;;;;;;2.53;100.00;99422.02;106602;1298;22187;-61
2022/12/25 00:27:52;;;;;;;59.40;37.40;;;;;;;2.53;100.00;99420.23;106611;1306;22175;-62
2022/12/25 00:30:19;;;;;;;;;;;;;;;2.52;100.00;99424.80;106408;1297;138771;-62
2022/12/25 00:32:46;;;;;;;51.10;33.50;;;;;;;2.50;100.00;99420.79;106520;1298;22859;-62
2022/12/25 00:35:12;;;;;;;50.00;32.70;;;;;;;2.50;100.00;99425.95;106389;1306;139022;-61
2022/12/25 00:37:39;;;;;;;48.40;30.90;;;;;;;2.47;100.00;99422.02;106570;1306;23842;-61
2022/12/25 00:40:06;;;;;;;52.40;33.00;;;;;;;2.47;100.00;99428.42;104666;1306;22462;-61
2022/12/25 00:42:33;;;;;;;45.70;30.80;;;;;;;2.47;100.00;99429.49;102140;1313;139006;-61
2022/12/25 00:45:00;;;;;;;54.40;33.40;;;;;;;2.47;100.00;99435.66;102268;1291;22534;-61
2022/12/25 00:47:27;;;;;;;;;;;;;;;2.46;100.00;99436.08;102228;1299;139804;-61
2022/12/25 00:49:54;;;;;;;48.50;30.60;;;;;;;2.44;100.00;99433.64;102101;1298;22509;-61
2022/12/25 00:52:21;;;;;;;48.60;30.70;;;;;;;2.42;100.00;99435.94;102268;1296;22642;-61
2022/12/25 00:54:47;;;;;;;54.40;31.60;;;;;;;2.44;100.00;99442.19;102244;1305;139497;-61
2022/12/25 00:57:14;;;;;;;46.80;30.70;;;;;;;2.43;100.00;99441.61;102309;1296;25107;-62
2022/12/25 00:59:41;;;;;;;48.00;30.00;;;;;;;2.41;100.00;99443.38;102136;1313;138362;-61
2022/12/25 01:02:23;;;;;;;44.20;29.00;;;;;;;2.40;100.00;99445.23;102243;1285;22598;-63
2022/12/25 01:04:54;;;;;;;49.10;30.00;;;;;;;2.38;100.00;99447.59;102169;1305;22710;-60
2022/12/25 01:07:22;;;;;;;44.10;28.60;;;;;;;2.36;100.00;99447.50;102192;1289;25335;-60
2022/12/25 01:12:37;;;;;;;49.00;29.50;;;;;;;2.33;100.00;99450.60;101993;1282;138557;-61
2022/12/25 01:15:05;;;;;;;44.60;26.90;;;;;;;2.32;100.00;99451.34;102170;1298;22507;-61
2022/12/25 01:17:32;;;;;;;44.10;27.90;;;;;;;2.31;100.00;99448.20;106430;1306;139221;-61
2022/12/25 01:19:59;;;;;;;45.30;28.00;;;;;;;2.29;100.00;99447.56;106587;1306;23324;-62
2022/12/25 01:22:26;;;;;;;42.50;27.40;;;;;;;2.30;100.00;99449.84;106544;1306;22135;-62
2022/12/25 01:24:53;;;;;;;45.50;27.80;;;;;;;2.30;100.00;99450.59;106503;1291;138811;-61
2022/12/25 01:27:19;;;;;;;43.80;27.40;;;;;;;2.31;100.00;99453.27;106568;1306;22169;-61
2022/12/25 01:29:46;;;;;;;41.80;27.50;;;;;;;2.31;100.00;99452.77;106451;1298;138571;-63
2022/12/25 01:32:13;;;;;;;41.90;26.70;;;;;;;2.30;100.00;99453.92;106495;1290;22794;-62
2022/12/25 01:34:40;;;;;;;38.40;24.50;;;;;;;2.30;100.00;99460.46;106551;1305;22374;-62
2022/12/25 01:37:06;;;;;;;40.30;25.80;;;;;;;2.28;100.00;99457.64;106422;1290;139089;-62
2022/12/25 01:39:33;;;;;;;42.60;26.90;;;;;;;2.27;100.00;99458.80;106532;1306;22127;-62
2022/12/25 01:42:00;;;;;;;43.40;26.60;;;;;;;2.27;100.00;99457.77;106446;1298;139709;-62
2022/12/25 01:44:36;;;;;;;39.70;24.70;;;;;;;2.26;100.00;99459.88;106570;1305;22194;-62
2022/12/25 01:47:03;;;;;;;40.30;25.00;;;;;;;2.27;100.00;99458.23;106421;1306;138646;-62
2022/12/25 01:49:30;;;;;;;39.80;26.10;;;;;;;2.30;100.00;99466.66;106808;1294;22121;-61
2022/12/25 01:51:59;;;;;;;41.20;26.40;;;;;;;2.30;100.00;99464.96;106728;1294;22125;-62
2022/12/25 01:54:33;;;;;;;43.20;26.90;;;;;;;2.31;100.00;99465.65;106624;1302;138769;-62
2022/12/25 01:57:01;;;;;;;42.60;27.10;;;;;;;2.32;100.00;99465.03;106665;1288;22977;-62
2022/12/25 01:59:28;;;;;;;42.20;25.00;;;;;;;2.32;100.00;99466.31;106619;1297;138805;-61
2022/12/25 02:01:55;;;;;;;40.20;24.40;;;;;;;2.32;100.00;99464.02;106744;1302;22131;-62
2022/12/25 02:04:37;;;;;;;37.40;25.10;;;;;;;2.31;100.00;99462.60;106821;1302;22205;-62
2022/12/25 02:07:04;;;;;;;37.30;24.10;;;;;;;2.31;100.00;99462.34;106801;1302;140192;-61
2022/12/25 02:09:31;;;;;;;37.40;24.50;;;;;;;2.31;100.00;99464.70;106801;1294;22124;-61
2022/12/25 02:11:58;;;;;;;44.20;26.20;;;;;;;2.30;100.00;99464.52;106703;1302;138454;-61
2022/12/25 02:14:26;;;;;;;38.70;24.20;;;;;;;2.29;100.00;99462.70;106922;1293;22206;-61
2022/12/25 02:17:09;;;;;;;37.90;24.30;;;;;;;2.30;100.00;99461.34;106789;1303;22854;-61
2022/12/25 02:19:45;;;;;;;40.40;24.20;;;;;;;2.29;100.00;99466.75;106779;1302;22985;-61
2022/12/25 02:22:32;;;;;;;37.60;24.20;;;;;;;2.29;100.00;99474.73;106823;1294;22188;-61
2022/12/25 02:25:12;;;;;;;37.80;23.20;;;;;;;2.28;100.00;99476.75;106585;1302;138113;-61
2022/12/25 02:27:53;;;;;;;40.20;24.80;;;;;;;2.29;100.00;99475.18;106616;1303;23405;-61
2022/12/25 02:30:21;;;;;;;39.00;23.70;;;;;;;2.30;100.00;99475.85;106625;1291;139022;-61
2022/12/25 02:35:49;;;;;;;36.40;23.20;;;;;;;2.30;100.00;99480.45;106649;1302;138987;-61
2022/12/25 02:38:23;;;;;;;36.40;23.00;;;;;;;2.31;100.00;99485.40;106758;1303;22136;-61
2022/12/25 02:40:57;;;;;;;37.50;23.20;;;;;;;2.31;100.00;99485.84;106679;1305;22162;-61
2022/12/25 03:08:37;;;;;;;34.60;20.80;;;;;;;2.12;100.00;99507.91;106777;1303;22105;-61
2022/12/25 03:13:54;;;;;;;31.90;20.20;;;;;;;2.09;100.00;99515.55;106818;1303;22137;-61
2022/12/25 03:26:53;;;;;;;33.50;20.10;;;;;;;2.02;100.00;99518.86;106729;1303;138298;-61
2022/12/25 03:27:24;;;;;;;25.30;16.80;;;;;;;1.96;100.00;99527.45;106777;1300;22258;-62
2022/12/25 03:32:40;;;;;;;27.00;17.70;;;;;;;1.93;100.00;99529.80;106853;1303;22152;-61
2022/12/25 03:35:22;;;;;;;26.30;17.70;;;;;;;1.90;100.00;99531.15;106834;1298;138294;-61
2022/12/25 04:36:53;;;;;;;29.80;19.50;;;;;;;1.73;100.00;99581.02;106668;1300;138450;-60
2022/12/25 04:39:20;;;;;;;62.80;39.00;;;;;;;1.72;100.00;99583.09;106948;1290;22220;-59
2022/12/25 04:41:47;;;;;;;39.10;24.90;;;;;;;1.71;100.00;99583.82;106819;1294;140281;-60
2022/12/25 04:44:14;;;;;;;25.50;18.70;;;;;;;1.70;100.00;99588.48;106819;1295;23345;-60
2022/12/25 04:46:40;;;;;;;39.50;23.70;;;;;;;1.70;100.00;99591.42;106809;1302;22144;-60
2022/12/25 04:49:07;;;;;;;;;;;;;;;1.69;100.00;99591.73;106811;1303;137949;-60
2022/12/25 04:51:35;;;;;;;45.60;25.80;;;;;;;1.68;100.00;99596.94;106881;1303;22234;-60
2022/12/25 04:54:01;;;;;;;31.50;20.40;;;;;;;1.64;100.00;99601.99;106747;1302;139145;-59
2022/12/25 04:56:28;;;;;;;;;;;;;;;1.63;100.00;99602.28;106949;1293;22346;-60
2022/12/25 04:58:55;;;;;;;24.00;17.10;;;;;;;1.62;100.00;99599.95;106834;1302;22983;-60
2022/12/25 05:01:22;;;;;;;22.30;14.80;;;;;;;1.61;100.00;99601.73;106725;1293;138474;-60
2022/12/25 05:03:48;;;;;;;;;;;;;;;1.60;100.00;99601.27;106969;1303;22354;-60
2022/12/25 05:06:15;;;;;;;21.00;13.20;;;;;;;1.59;100.00;99602.45;106713;1303;124612;-60
2022/12/25 05:08:42;;;;;;;20.10;12.90;;;;;;;1.57;100.00;99602.22;106846;1302;23165;-60
2022/12/25 05:11:11;;;;;;;18.90;12.80;;;;;;;1.57;100.00;99606.60;106712;1295;139287;-60
2022/12/25 05:13:38;;;;;;;16.80;12.20;;;;;;;1.57;100.00;99609.58;106855;1303;22110;-60
2022/12/25 05:16:10;;;;;;;21.00;14.30;;;;;;;1.58;100.00;99611.77;106896;1303;22260;-60
2022/12/25 05:18:37;;;;;;;21.20;14.50;;;;;;;1.59;100.00;99614.85;106710;1302;139993;-60
2022/12/25 05:21:06;;;;;;;20.30;14.40;;;;;;;1.60;100.00;99613.73;106817;1303;22130;-60
2022/12/25 05:23:33;;;;;;;21.80;15.50;;;;;;;1.59;100.00;99613.98;106754;1292;138427;-60
2022/12/25 05:26:04;;;;;;;43.40;31.80;;;;;;;1.55;100.00;99610.34;106799;1295;22238;-60
2022/12/25 05:28:33;;;;;;;51.30;33.00;;;;;;;1.58;100.00;99618.25;106818;1303;22175;-60
2022/12/25 05:31:00;;;;;;;55.40;34.10;;;;;;;1.57;100.00;99623.70;106723;1299;138325;-60
2022/12/25 05:33:27;;;;;;;55.10;29.70;;;;;;;1.58;100.00;99629.95;106785;1295;23419;-60
2022/12/25 05:35:54;;;;;;;52.60;31.80;;;;;;;1.57;100.00;99638.65;106704;1303;138276;-60
2022/12/25 05:38:20;;;;;;;77.00;47.40;;;;;;;1.54;100.00;99640.70;106929;1303;22152;-60
2022/12/25 05:40:49;;;;;;;24.90;16.60;;;;;;;1.54;100.00;99643.30;103747;1292;24254;-57
2022/12/25 05:43:18;;;;;;;18.80;12.80;;;;;;;1.53;100.00;99647.01;106391;1300;139103;-58
2022/12/25 05:45:44;;;;;;;19.80;13.70;;;;;;;1.53;100.00;99646.52;106907;1303;22120;-58
2022/12/25 05:48:11;;;;;;;16.40;11.80;;;;;;;1.53;100.00;99647.59;106715;1303;138301;-58
2022/12/25 05:50:38;;;;;;;17.10;12.30;;;;;;;1.52;100.00;99647.29;106855;1303;22135;-57
2022/12/25 05:53:08;;;;;;;17.10;12.00;;;;;;;1.51;100.00;99652.56;106725;1303;138152;-57
2022/12/25 05:55:35;;;;;;;14.10;10.20;;;;;;;1.50;100.00;99654.66;106828;1303;23145;-58
2022/12/25 05:58:03;;;;;;;13.30;9.80;;;;;;;1.50;100.00;99661.15;106826;1302;22140;-58
2022/12/25 06:00:29;;;;;;;13.60;10.50;;;;;;;1.48;100.00;99659.39;106687;1288;137936;-58
2022/12/25 06:02:56;;;;;;;13.80;9.80;;;;;;;1.47;100.00;99661.33;106926;1303;22365;-58
2022/12/25 06:05:23;;;;;;;13.80;9.60;;;;;;;1.46;100.00;99661.48;106712;1303;138796;-58
2022/12/25 06:07:50;;;;;;;14.40;10.10;;;;;;;1.45;100.00;99664.83;106756;1294;22216;-58
2022/12/25 06:10:17;;;;;;;9.40;7.50;;;;;;;1.44;100.00;99666.27;106729;1296;23352;-59
2022/12/25 06:12:43;;;;;;;;;;;;;;;1.42;100.00;99670.06;106723;1302;137809;-59
2022/12/25 06:15:10;;;;;;;19.70;12.80;;;;;;;1.40;100.00;99673.31;106738;1303;22133;-58
2022/12/25 06:17:38;;;;;;;20.60;13.70;;;;;;;1.38;100.00;99674.52;106688;1303;138924;-58
2022/12/25 06:20:06;;;;;;;26.10;17.50;;;;;;;1.35;100.00;99681.08;106813;1302;22183;-58
2022/12/25 06:22:33;;;;;;;32.20;21.30;;;;;;;1.35;100.00;99689.24;106801;1295;22099;-59
2022/12/25 06:24:59;;;;;;;23.30;15.70;;;;;;;1.34;100.00;99691.13;106715;1300;138419;-58
2022/12/25 06:27:27;;;;;;;19.20;13.30;;;;;;;1.34;100.00;99701.50;106859;1302;22150;-58
2022/12/25 06:29:54;;;;;;;16.30;11.20;;;;;;;1.30;100.00;99700.20;106798;1296;138008;-58
2022/12/25 06:32:21;;;;;;;11.50;8.70;;;;;;;1.29;100.00;99707.21;106790;1287;22124;-58
2022/12/25 06:34:47;;;;;;;11.80;9.40;;;;;;;1.28;100.00;99711.00;106760;1303;22237;-58
2022/12/25 06:37:14;;;;;;;13.10;9.60;;;;;;;1.28;100.00;99710.67;106681;1302;138497;-58
2022/12/25 06:39:41;;;;;;;12.40;9.50;;;;;;;1.28;100.00;99709.93;106763;1301;23466;-58
2022/12/25 06:42:07;;;;;;;13.00;9.10;;;;;;;1.29;100.00;99710.60;106667;1303;139159;-58
2022/12/25 06:44:34;;;;;;;15.40;11.40;;;;;;;1.28;100.00;99713.36;106775;1302;23033;-58
2022/12/25 06:47:01;;;;;;;15.10;11.30;;;;;;;1.28;100.00;99712.13;106803;1303;22186;-58
2022/12/25 06:49:27;;;;;;;12.50;9.10;;;;;;;1.28;100.00;99722.73;106757;1301;138856;-58
2022/12/25 06:51:54;;;;;;;14.70;10.20;;;;;;;1.27;100.00;99726.97;106795;1303;22141;-56
2022/12/25 06:54:21;;;;;;;30.00;17.50;;;;;;;1.25;100.00;99728.56;106687;1303;140357;-55
2022/12/25 06:56:48;;;;;;;14.00;9.80;;;;;;;1.24;100.00;99735.48;106847;1298;23066;-58
2022/12/25 06:59:15;;;;;;;8.30;7.30;;;;;;;1.25;100.00;99741.52;106741;1306;138077;-58
2022/12/25 07:01:42;;;;;;;9.80;7.80;;;;;;;1.24;100.00;99749.94;106831;1302;22904;-58
2022/12/25 07:04:16;;;;;;;;;;;;;;;1.22;100.00;99751.98;106946;1303;22308;-58
2022/12/25 07:06:42;;;;;;;9.30;6.60;;;;;;;1.22;100.00;99754.71;106721;1306;124805;-58
2022/12/25 07:09:09;;;;;;;9.60;8.00;;;;;;;1.23;100.00;99757.86;106888;1306;22196;-58
2022/12/25 07:11:36;;;;;;;;;;;;;;;1.23;100.00;99756.70;106698;1284;139317;-59
2022/12/25 07:14:03;;;;;;;8.90;6.90;;;;;;;1.23;100.00;99759.60;106935;1306;22189;-58
2022/12/25 07:16:29;;;;;;;10.00;8.20;;;;;;;1.24;100.00;99763.48;106839;1298;22185;-58
2022/12/25 07:18:59;;;;;;;9.90;7.90;;;;;;;1.25;100.00;99769.43;106853;1301;139843;-59
2022/12/25 07:21:25;;;;;;;9.30;6.70;;;;;;;1.26;100.00;99774.11;106874;1306;22135;-59
2022/12/25 07:23:52;;;;;;;10.10;7.20;;;;;;;1.23;100.00;99775.23;106822;1306;138636;-59
2022/12/25 07:26:19;;;;;;;7.90;6.20;;;;;;;1.21;100.00;99772.65;106827;1302;23159;-58
2022/12/25 07:28:46;;;;;;;6.80;5.50;;;;;;;1.19;100.00;99778.70;106930;1303;22244;-59
2022/12/25 07:31:13;;;;;;;8.90;5.90;;;;;;;1.19;100.00;99780.39;106729;1303;138606;-59
2022/12/25 07:33:40;;;;;;;8.60;5.90;;;;;;;1.19;100.00;99781.01;106825;1304;22094;-58
2022/12/25 07:36:08;;;;;;;7.50;6.00;;;;;;;1.17;100.00;99782.19;106712;1307;138627;-58
2022/12/25 07:38:42;;;;;;;9.10;5.30;;;;;;;1.19;100.00;99787.45;106843;1306;23252;-59
2022/12/25 07:41:10;;;;;;;7.70;5.80;;;;;;;1.19;100.00;99790.34;106743;1299;139499;-58
2022/12/25 07:43:36;;;;;;;8.50;6.30;;;;;;;1.20;100.00;99790.59;106933;1303;23155;-58
2022/12/25 07:46:03;;;;;;;7.40;5.90;;;;;;;1.20;100.00;99790.36;106751;1303;22125;-59
2022/12/25 07:48:30;;;;;;;7.70;5.80;;;;;;;1.21;100.00;99795.86;106717;1301;138601;-58
2022/12/25 07:50:58;;;;;;;8.00;5.50;;;;;;;1.20;100.00;99795.80;106849;1306;23069;-59
2022/12/25 07:53:25;;;;;;;6.80;5.40;;;;;;;1.20;100.00;99795.56;106645;1303;138562;-58
2022/12/25 07:56:12;;;;;;;9.00;6.90;;;;;;;1.21;100.00;99803.00;106825;1303;22177;-59
2022/12/25 07:58:39;;;;;;;12.10;7.40;;;;;;;1.22;100.00;99804.16;106832;1303;23395;-59
2022/12/25 08:01:13;;;;;;;11.90;8.60;;;;;;;1.22;100.00;99802.52;106733;1306;139631;-59
2022/12/25 08:03:40;;;;;;;8.40;6.80;;;;;;;1.21;100.00;99797.23;106835;1295;22311;-58
2022/12/25 08:06:08;;;;;;;;;;;;;;;1.23;100.00;99797.07;106775;1303;138976;-58
2022/12/25 08:08:35;;;;;;;9.50;6.50;;;;;;;1.22;100.00;99798.73;106755;1303;22306;-58
2022/12/25 08:11:02;;;;;;;7.70;6.10;;;;;;;1.21;100.00;99799.41;106807;1295;22137;-58
2022/12/25 08:13:29;;;;;;;;;;;;;;;1.21;100.00;99802.83;106660;1302;137761;-58
2022/12/25 08:15:57;;;;;;;7.10;6.00;;;;;;;1.19;100.00;99798.56;106805;1295;22262;-58
2022/12/25 08:18:24;;;;;;;10.10;6.70;;;;;;;1.21;100.00;99804.36;106760;1303;137867;-58
2022/12/25 08:20:56;;;;;;;7.30;6.30;;;;;;;1.21;100.00;99804.73;106953;1303;22116;-59
2022/12/25 08:23:22;;;;;;;;;;;;;;;1.22;100.00;99811.48;106724;1303;138996;-58
2022/12/25 08:25:49;;;;;;;9.40;7.10;;;;;;;1.22;100.00;99810.23;106745;1284;22869;-58
2022/12/25 08:28:16;;;;;;;9.50;8.20;;;;;;;1.22;100.00;99816.80;106797;1302;22094;-59
2022/12/25 08:30:42;;;;;;;9.00;8.00;;;;;;;1.22;100.00;99817.20;106719;1303;137723;-58
2022/12/25 08:33:09;;;;;;;12.10;9.40;;;;;;;1.21;100.00;99816.75;106789;1303;22187;-58
2022/12/25 08:35:36;;;;;;;11.30;8.00;;;;;;;1.20;100.00;99821.16;106677;1303;138403;-59
2022/12/25 08:38:02;;;;;;;11.00;8.10;;;;;;;1.20;100.00;99820.90;106815;1303;22132;-58
2022/12/25 08:40:29;;;;;;;21.30;11.70;;;;;;;1.19;100.00;99826.31;106833;1303;22161;-60
2022/12/25 08:42:56;;;;;;;15.20;9.70;;;;;;;1.19;100.00;99825.97;106701;1303;138030;-60
2022/12/25 08:45:23;;;;;;;14.20;9.60;;;;;;;1.19;100.00;99826.34;106793;1291;22134;-60
2022/12/25 08:47:56;;;;;;;17.90;11.80;;;;;;;1.19;100.00;99830.84;106695;1301;137886;-60
2022/12/25 08:50:23;;;;;;;11.80;8.20;;;;;;;1.19;100.00;99828.89;106864;1303;22377;-60
2022/12/25 08:52:50;;;;;;;;;;;;;;;1.17;100.00;99833.54;106895;1294;23062;-60
2022/12/25 08:55:17;;;;;;;20.10;13.10;;;;;;;1.16;100.00;99837.55;106747;1303;124388;-60
2022/12/25 08:57:43;;;;;;;10.90;8.30;;;;;;;1.15;100.00;99841.85;106940;1295;22913;-61
2022/12/25 09:00:10;;;;;;;14.40;7.60;;;;;;;1.14;100.00;99841.29;106699;1303;137774;-61
2022/12/25 09:02:37;;;;;;;8.30;6.30;;;;;;;1.15;100.00;99844.02;106857;1303;22206;-61
2022/12/25 09:05:04;;;;;;;;;;;;;;;1.15;100.00;99846.70;106725;1302;138135;-59
2022/12/25 09:07:31;;;;;;;8.40;7.00;;;;;;;1.16;100.00;99844.22;106764;1296;22119;-60
2022/12/25 09:09:57;;;;;;;7.60;6.20;;;;;;;1.16;100.00;99847.73;106836;1302;22308;-60
2022/12/25 09:12:24;;;;;;;10.50;6.40;;;;;;;1.16;100.00;99846.70;106682;1303;138980;-60
2022/12/25 09:14:51;;;;;;;8.80;6.50;;;;;;;1.17;100.00;99842.38;106763;1302;22238;-60
2022/12/25 09:17:18;;;;;;;8.70;7.30;;;;;;;1.18;100.00;99841.15;106682;1302;138166;-60
2022/12/25 09:19:45;;;;;;;11.40;8.30;;;;;;;1.19;100.00;99845.83;106930;1303;23140;-60
2022/12/25 09:22:11;;;;;;;14.40;9.60;;;;;;;1.22;100.00;99848.02;106822;1303;22143;-62
2022/12/25 09:24:38;;;;;;;7.70;6.20;;;;;;;1.24;100.00;99852.05;106730;1303;137845;-60
2022/12/25 09:27:06;;;;;;;17.50;10.60;;;;;;;1.27;100.00;99857.58;106812;1294;22075;-60
2022/12/25 09:29:32;;;;;;;18.10;13.70;;;;;;;1.29;100.00;99860.29;106711;1302;138951;-60
2022/12/25 09:31:59;;;;;;;30.20;23.70;;;;;;;1.31;100.00;99863.27;106803;1301;22299;-60
2022/12/25 09:34:26;;;;;;;22.50;18.60;;;;;;;1.32;100.00;99865.05;106777;1295;22209;-60
2022/12/25 09:36:53;;;;;;;13.70;9.90;;;;;;;1.35;100.00;99867.08;106679;1279;141061;-60
2022/12/25 09:42:00;;;;;;;8.80;7.40;;;;;;;1.39;100.00;99875.38;99539;1327;545827;-56
2022/12/25 09:44:29;;;;;;;10.70;9.00;;;;;;;1.36;100.00;99878.43;101046;1312;25154;-57
2022/12/25 09:46:59;;;;;;;9.70;7.80;;;;;;;1.36;100.00;99880.14;105416;1304;22481;-58
2022/12/25 09:49:36;;;;;;;18.60;13.80;;;;;;;1.35;100.00;99880.61;105380;1314;140002;-58
2022/12/25 09:52:06;;;;;;;26.40;17.70;;;;;;;1.35;100.00;99880.82;105644;1315;22324;-58
2022/12/25 09:54:58;;;;;;;24.60;17.50;;;;;;;1.36;100.00;99881.24;105300;1318;185776;-58
2022/12/25 09:57:25;;;;;;;22.70;16.70;;;;;;;1.37;100.00;99880.06;105861;1314;22268;-58
2022/12/25 09:59:52;;;;;;;;;;;;;;;1.38;100.00;99879.41;105774;1311;138674;-58
2022/12/25 10:02:47;;;;;;;13.90;8.70;;;;;;;1.39;100.00;99881.04;105878;1302;22969;-58
2022/12/25 10:05:30;;;;;;;26.00;17.70;;;;;;;1.40;100.00;99879.73;105756;1313;138520;-56
2022/12/25 10:08:23;;;;;;;28.50;17.10;;;;;;;1.39;100.00;99880.91;106438;1308;22228;-56
2022/12/25 10:10:51;;;;;;;10.20;7.30;;;;;;;1.40;100.00;99882.91;106413;1304;22353;-56
2022/12/25 10:13:40;;;;;;;8.00;6.50;;;;;;;1.40;100.00;99882.79;106266;1306;137621;-56
2022/12/25 10:16:17;;;;;;;9.80;7.10;;;;;;;1.42;100.00;99883.23;106467;1308;22108;-56
2022/12/25 10:18:51;;;;;;;9.10;6.90;;;;;;;1.42;100.00;99883.39;106276;1300;137738;-56
2022/12/25 10:21:18;;;;;;;10.70;8.90;;;;;;;1.41;100.00;99880.98;106422;1308;22134;-56
2022/12/25 10:23:46;;;;;;;;;;;;;;;1.41;100.00;99877.84;106394;1296;138064;-56
2022/12/25 10:26:18;;;;;;;10.50;8.70;;;;;;;1.40;100.00;99878.05;106458;1304;22168;-56
2022/12/25 10:28:47;;;;;;;12.20;9.00;;;;;;;1.40;100.00;99879.70;106556;1305;22339;-56
2022/12/25 10:31:25;;;;;;;10.20;7.20;;;;;;;1.41;100.00;99880.48;106373;1305;137741;-56
2022/12/25 10:33:52;;;;;;;10.90;7.80;;;;;;;1.44;100.00;99879.03;106482;1304;22242;-56
2022/12/25 10:36:22;;;;;;;9.80;7.50;;;;;;;1.46;100.00;99879.61;106371;1304;138066;-56
2022/12/25 10:38:49;;;;;;;9.30;6.80;;;;;;;1.49;100.00;99885.39;106532;1305;23240;-56
2022/12/25 10:41:45;;;;;;;36.70;22.00;;;;;;;1.53;100.00;99887.38;102326;1308;139143;-61
2022/12/25 10:44:23;;;;;;;11.90;7.90;;;;;;;1.55;100.00;99896.58;101908;1286;22492;-60
2022/12/25 10:46:52;;;;;;;8.60;6.20;;;;;;;1.56;100.00;99904.06;106461;1283;22274;-60
2022/12/25 10:49:20;;;;;;;9.00;6.60;;;;;;;1.55;100.00;99911.83;106421;1299;138586;-64
2022/12/25 10:51:47;;;;;;;7.50;5.80;;;;;;;1.54;100.00;99917.31;106459;1303;22449;-61
2022/12/25 10:54:18;;;;;;;;;;;;;;;1.57;100.00;99920.19;106378;1305;139432;-61
2022/12/25 10:57:07;;;;;;;7.00;5.00;;;;;;;1.60;100.00;99923.34;106467;1309;22211;-61
2022/12/25 10:59:43;;;;;;;7.30;5.00;;;;;;;1.62;100.00;99923.33;106423;1297;138398;-61
2022/12/25 11:02:18;;;;;;;6.10;4.80;;;;;;;1.64;100.00;99922.15;106506;1293;22223;-61
2022/12/25 11:04:46;;;;;;;6.90;5.10;;;;;;;1.69;100.00;99927.30;106431;1298;22138;-60
2022/12/25 11:07:20;;;;;;;33.70;20.40;;;;;;;1.71;100.00;99925.73;106371;1307;138069;-60
2022/12/25 11:09:55;;;;;;;14.60;11.20;;;;;;;1.74;100.00;99925.02;106407;1304;22137;-62
2022/12/25 11:12:33;;;;;;;11.70;8.40;;;;;;;1.77;100.00;99926.45;106693;1303;138418;-61
2022/12/25 11:15:02;;;;;;;10.40;8.70;;;;;;;1.78;100.00;99923.05;106754;1303;22126;-61
2022/12/25 11:17:29;;;;;;;13.50;11.00;;;;;;;1.79;100.00;99917.93;106456;1302;138003;-61
2022/12/25 11:19:59;;;;;;;13.20;9.50;;;;;;;1.81;100.00;99917.50;106731;1303;22144;-61
2022/12/25 11:22:28;;;;;;;10.90;7.70;;;;;;;1.84;100.00;99919.89;106746;1301;22143;-61
2022/12/25 11:24:54;;;;;;;8.20;6.20;;;;;;;1.88;100.00;99927.47;106586;1297;138263;-61
2022/12/25 11:27:25;;;;;;;;;;;;;;;1.88;100.00;99926.06;106788;1301;22334;-61
2022/12/25 11:30:00;;;;;;;11.30;9.30;;;;;;;1.90;100.00;99926.09;106595;1302;125546;-62
2022/12/25 11:32:31;;;;;;;12.40;8.90;;;;;;;1.92;100.00;99930.99;106696;1302;23108;-61
2022/12/25 11:34:58;;;;;;;15.80;11.90;;;;;;;1.92;100.00;99931.86;106703;1303;22127;-61
2022/12/25 11:37:25;;;;;;;8.90;6.00;;;;;;;1.92;100.00;99929.91;106513;1304;139250;-61
2022/12/25 11:39:52;;;;;;;21.00;15.90;;;;;;;1.93;100.00;99931.91;106710;1303;22226;-61
2022/12/25 11:42:32;;;;;;;12.40;8.20;;;;;;;1.95;100.00;99931.77;106578;1304;138268;-61
2022/12/25 11:45:05;;;;;;;9.60;5.70;;;;;;;1.94;100.00;99932.91;106700;1295;22129;-61
2022/12/25 11:47:48;;;;;;;8.80;5.90;;;;;;;1.94;100.00;99939.91;106538;1303;139718;-61
2022/12/25 11:50:33;;;;;;;7.30;5.60;;;;;;;1.94;100.00;99942.96;106591;1303;22240;-61
2022/12/25 11:53:01;;;;;;;7.90;5.50;;;;;;;1.93;100.00;99943.44;106606;1304;22252;-61
2022/12/25 11:55:28;;;;;;;9.70;6.00;;;;;;;1.92;100.00;99944.76;106450;1306;138899;-61
2022/12/25 11:57:57;;;;;;;8.90;4.60;;;;;;;1.92;100.00;99947.90;106609;1303;22131;-61
2022/12/25 12:00:24;;;;;;;6.20;4.60;;;;;;;1.94;100.00;99950.69;106448;1304;139168;-61
2022/12/25 12:02:57;;;;;;;7.60;5.50;;;;;;;1.92;100.00;99951.95;106538;1296;22964;-61
2022/12/25 12:05:31;;;;;;;8.10;5.50;;;;;;;1.93;100.00;99955.59;106501;1301;138042;-61
2022/12/25 12:08:00;;;;;;;8.20;5.90;;;;;;;1.93;100.00;99961.05;106588;1303;22116;-61
2022/12/25 12:10:32;;;;;;;6.40;5.30;;;;;;;1.88;100.00;99957.45;106679;1297;22214;-61
2022/12/25 12:13:05;;;;;;;8.70;6.30;;;;;;;1.89;100.00;99965.56;106513;1286;138004;-61
2022/12/25 12:15:41;;;;;;;8.60;5.90;;;;;;;1.91;100.00;99971.52;106603;1306;23310;-61
2022/12/25 12:18:26;;;;;;;10.20;7.20;;;;;;;1.93;100.00;99975.15;106473;1303;137417;-61
2022/12/25 12:21:07;;;;;;;10.80;6.80;;;;;;;1.96;100.00;99976.55;106712;1303;22207;-60
2022/12/25 12:23:55;;;;;;;122.20;62.30;;;;;;;1.98;100.00;99977.52;106502;1303;138363;-61
2022/12/25 12:26:29;;;;;;;25.00;12.20;;;;;;;2.00;100.00;99981.10;106612;1303;22101;-60
2022/12/25 12:29:00;;;;;;;12.10;7.70;;;;;;;2.01;100.00;99991.94;106630;1303;22345;-60
2022/12/25 12:31:40;;;;;;;9.20;5.70;;;;;;;2.01;100.00;99997.94;106404;1290;137734;-60
2022/12/25 12:34:26;;;;;;;7.30;5.50;;;;;;;2.00;100.00;100001.70;106582;1289;22306;-61
2022/12/25 12:37:06;;;;;;;7.90;5.20;;;;;;;1.98;100.00;100006.38;106564;1303;138258;-61
2022/12/25 12:39:37;;;;;;;7.10;5.40;;;;;;;1.99;100.00;100007.91;106520;1290;22126;-61
2022/12/25 12:42:14;;;;;;;10.20;7.10;;;;;;;2.01;100.00;100010.14;106646;1287;138031;-61
2022/12/25 12:44:41;;;;;;;10.30;6.90;;;;;;;2.04;100.00;100010.81;106577;1302;22214;-60
2022/12/25 12:47:08;;;;;;;8.30;6.80;;;;;;;2.04;100.00;100012.06;106610;1302;138579;-60
2022/12/25 12:49:34;;;;;;;12.00;7.60;;;;;;;2.06;100.00;100014.67;106491;1295;22206;-61
2022/12/25 12:52:21;;;;;;;10.80;6.10;;;;;;;2.07;100.00;100014.54;106687;1277;22255;-60
2022/12/25 12:55:12;;;;;;;10.40;6.90;;;;;;;2.06;100.00;100012.40;106638;1285;138567;-61
2022/12/25 12:57:39;;;;;;;8.30;6.10;;;;;;;2.04;100.00;100014.41;106738;1287;22104;-61
2022/12/25 13:00:15;;;;;;;;;;;;;;;2.04;100.00;100014.98;106607;1288;137769;-60
2022/12/25 13:02:42;;;;;;;13.00;8.40;;;;;;;2.04;100.00;100017.22;106720;1284;22152;-61
2022/12/25 13:05:18;;;;;;;;;;;;;;;2.05;100.00;100023.63;106621;1302;138891;-60
2022/12/25 13:07:47;;;;;;;20.70;11.70;;;;;;;2.04;100.00;100025.12;106735;1302;22204;-60
2022/12/25 13:10:33;;;;;;;47.20;22.10;;;;;;;2.03;100.00;100032.46;106724;1302;22224;-60
2022/12/25 13:13:05;;;;;;;29.30;14.40;;;;;;;2.03;100.00;100037.27;106562;1302;138646;-61
2022/12/25 13:15:33;;;;;;;25.20;12.40;;;;;;;2.04;100.00;100037.27;106801;1289;22158;-61